createdAt,value
2018-12-23T00:01:20.133Z,9.20
2018-12-23T00:03:48.628Z,9.10
2018-12-23T00:06:17.105Z,9.10
2018-12-23T00:08:45.793Z,9.20
2018-12-23T00:11:14.602Z,9.20
2018-12-23T00:13:43.201Z,9.10
2018-12-23T00:16:11.709Z,9.10
2018-12-23T00:18:40.331Z,9.10
2018-12-23T00:21:09.136Z,9.10
2018-12-23T00:23:37.786Z,9.20
2018-12-23T00:26:06.302Z,9.10
2018-12-23T00:28:34.941Z,9.10
2018-12-23T00:31:03.525Z,9.00
2018-12-23T00:33:32.094Z,9.00
2018-12-23T00:36:00.686Z,9.00
2018-12-23T00:38:29.306Z,9.00
2018-12-23T00:40:57.837Z,9.10
2018-12-23T00:43:26.490Z,9.20
2018-12-23T00:45:55.103Z,9.20
2018-12-23T00:48:23.804Z,9.10
2018-12-23T00:50:52.249Z,9.10
2018-12-23T00:53:20.909Z,9.20
2018-12-23T00:55:49.390Z,9.20
2018-12-23T00:58:17.909Z,9.30
2018-12-23T01:00:46.400Z,9.30
2018-12-23T01:03:14.844Z,9.20
2018-12-23T01:05:43.460Z,9.10
2018-12-23T01:08:12.052Z,9.10
2018-12-23T01:10:40.827Z,9.10
2018-12-23T01:13:09.309Z,9.10
2018-12-23T01:15:37.989Z,9.10
2018-12-23T01:18:06.470Z,9.10
2018-12-23T01:20:35.055Z,9.20
2018-12-23T01:23:04.048Z,9.10
2018-12-23T01:25:32.528Z,9.10
2018-12-23T01:28:01.168Z,9.10
2018-12-23T01:30:29.911Z,9.10
2018-12-23T01:32:58.961Z,9.20
2018-12-23T01:35:27.430Z,9.20
2018-12-23T01:37:56.101Z,9.20
2018-12-23T01:40:24.698Z,9.10
2018-12-23T01:42:53.157Z,8.90
2018-12-23T01:45:21.870Z,9.00
2018-12-23T01:47:50.577Z,9.00
2018-12-23T01:50:19.080Z,9.10
2018-12-23T01:52:47.594Z,9.00
2018-12-23T01:55:16.300Z,9.00
2018-12-23T01:57:45.178Z,9.10
2018-12-23T02:00:13.893Z,9.10
2018-12-23T02:02:42.584Z,9.10
2018-12-23T02:05:11.143Z,9.20
2018-12-23T02:07:39.617Z,9.10
2018-12-23T02:10:08.355Z,9.10
2018-12-23T02:12:36.905Z,9.20
2018-12-23T02:15:09.981Z,9.20
2018-12-23T02:17:38.781Z,9.20
2018-12-23T02:20:07.732Z,9.00
2018-12-23T02:22:36.429Z,9.10
2018-12-23T02:25:05.479Z,9.10
2018-12-23T02:27:33.954Z,9.10
2018-12-23T02:30:03.120Z,9.20
2018-12-23T02:32:31.896Z,9.10
2018-12-23T02:35:00.349Z,9.20
2018-12-23T02:37:29.056Z,9.10
2018-12-23T02:39:57.798Z,9.10
2018-12-23T02:42:26.478Z,9.10
2018-12-23T02:44:54.993Z,9.10
2018-12-23T02:47:23.543Z,9.00
2018-12-23T02:49:52.122Z,9.00
2018-12-23T02:52:21.228Z,9.10
2018-12-23T02:54:49.714Z,9.10
2018-12-23T02:57:18.308Z,9.10
2018-12-23T02:59:46.967Z,9.00
2018-12-23T03:02:15.592Z,9.10
2018-12-23T03:04:44.410Z,9.10
2018-12-23T03:07:13.230Z,9.10
2018-12-23T03:09:41.928Z,9.10
2018-12-23T03:12:10.621Z,9.10
2018-12-23T03:14:39.065Z,9.00
2018-12-23T03:17:07.594Z,9.10
2018-12-23T03:19:36.319Z,9.10
2018-12-23T03:22:05.150Z,9.10
2018-12-23T03:24:33.604Z,9.20
2018-12-23T03:27:37.527Z,9.10
2018-12-23T03:30:07.519Z,9.10
2018-12-23T03:32:37.316Z,9.10
2018-12-23T03:35:07.359Z,9.10
2018-12-23T03:37:37.179Z,9.00
2018-12-23T03:40:07.248Z,9.00
2018-12-23T03:42:37.186Z,9.00
2018-12-23T03:45:07.980Z,9.00
2018-12-23T03:47:37.782Z,9.00
2018-12-23T03:50:08.325Z,9.00
2018-12-23T03:52:38.180Z,8.90
2018-12-23T03:55:08.280Z,9.00
2018-12-23T03:57:38.005Z,9.00
2018-12-23T04:00:08.755Z,9.00
2018-12-23T04:02:38.540Z,9.10
2018-12-23T04:05:09.232Z,9.10
2018-12-23T04:07:39.023Z,9.00
2018-12-23T04:10:09.640Z,9.00
2018-12-23T04:12:39.516Z,8.90
2018-12-23T04:15:09.424Z,9.00
2018-12-23T04:17:39.254Z,8.90
2018-12-23T04:20:09.939Z,8.90
2018-12-23T04:22:39.942Z,8.90
2018-12-23T04:25:10.219Z,8.90
2018-12-23T04:27:39.914Z,9.00
2018-12-23T04:30:10.571Z,9.00
2018-12-23T04:32:40.443Z,9.00
2018-12-23T04:35:10.409Z,9.00
2018-12-23T04:37:40.172Z,9.00
2018-12-23T04:40:11.138Z,9.00
2018-12-23T04:42:40.972Z,9.00
2018-12-23T04:45:11.268Z,9.00
2018-12-23T04:47:41.110Z,9.00
2018-12-23T04:50:11.626Z,8.90
2018-12-23T04:52:41.762Z,8.90
2018-12-23T04:55:11.792Z,8.90
2018-12-23T04:57:41.585Z,8.90
2018-12-23T05:00:12.042Z,8.90
2018-12-23T05:02:41.787Z,9.00
2018-12-23T05:05:11.556Z,8.80
2018-12-23T05:07:41.328Z,8.90
2018-12-23T05:10:11.291Z,8.90
2018-12-23T05:12:41.197Z,8.90
2018-12-23T05:15:13.167Z,8.90
2018-12-23T05:17:42.956Z,9.00
2018-12-23T05:20:13.206Z,9.00
2018-12-23T05:22:43.041Z,8.90
2018-12-23T05:25:13.484Z,9.00
2018-12-23T05:27:43.270Z,9.00
2018-12-23T05:30:13.790Z,9.00
2018-12-23T05:32:43.638Z,9.00
2018-12-23T05:35:14.352Z,9.00
2018-12-23T05:37:44.125Z,9.00
2018-12-23T05:40:14.291Z,9.00
2018-12-23T05:42:44.090Z,8.90
2018-12-23T05:45:14.447Z,8.90
2018-12-23T05:47:44.355Z,8.90
2018-12-23T05:50:15.120Z,8.90
2018-12-23T05:52:44.901Z,8.90
2018-12-23T05:55:24.195Z,9.00
2018-12-23T05:57:54.971Z,9.00
2018-12-23T06:00:24.823Z,9.10
2018-12-23T06:02:54.728Z,9.00
2018-12-23T06:05:24.510Z,9.00
2018-12-23T06:07:54.527Z,9.00
2018-12-23T06:10:24.407Z,9.00
2018-12-23T06:12:54.205Z,9.00
2018-12-23T06:15:24.083Z,9.00
2018-12-23T06:17:54.165Z,9.00
2018-12-23T06:20:24.018Z,9.00
2018-12-23T06:22:54.059Z,9.00
2018-12-23T06:25:23.978Z,9.10
2018-12-23T06:27:53.960Z,9.00
2018-12-23T06:30:23.782Z,9.00
2018-12-23T06:32:53.694Z,9.00
2018-12-23T06:35:23.594Z,9.00
2018-12-23T06:37:53.386Z,9.10
2018-12-23T06:40:23.188Z,9.10
2018-12-23T06:42:53.202Z,9.10
2018-12-23T06:45:23.150Z,9.00
2018-12-23T06:47:52.959Z,9.00
2018-12-23T06:50:22.760Z,8.90
2018-12-23T06:52:52.554Z,9.00
2018-12-23T06:55:22.342Z,9.10
2018-12-23T06:57:52.131Z,9.00
2018-12-23T07:00:21.966Z,9.10
2018-12-23T07:02:51.781Z,9.10
2018-12-23T07:05:21.591Z,9.00
2018-12-23T07:07:51.344Z,9.10
2018-12-23T07:10:21.687Z,9.10
2018-12-23T07:12:51.548Z,9.00
2018-12-23T07:15:21.591Z,8.90
2018-12-23T07:17:51.347Z,8.90
2018-12-23T07:20:21.290Z,8.80
2018-12-23T07:22:51.096Z,8.90
2018-12-23T07:25:21.018Z,8.90
2018-12-23T07:27:51.050Z,8.90
2018-12-23T07:30:20.802Z,9.00
2018-12-23T07:32:50.614Z,9.00
2018-12-23T07:35:21.855Z,9.00
2018-12-23T07:37:51.784Z,9.00
2018-12-23T07:40:21.530Z,9.00
2018-12-23T07:42:51.459Z,9.00
2018-12-23T07:45:21.551Z,9.00
2018-12-23T07:47:51.891Z,9.00
2018-12-23T07:50:21.907Z,8.90
2018-12-23T07:52:52.042Z,8.90
2018-12-23T07:55:22.039Z,8.90
2018-12-23T07:57:51.948Z,8.90
2018-12-23T08:00:22.298Z,9.00
2018-12-23T08:02:52.051Z,9.00
2018-12-23T08:05:22.709Z,8.90
2018-12-23T08:07:52.733Z,8.90
2018-12-23T08:10:22.618Z,9.00
2018-12-23T08:12:52.446Z,9.00
2018-12-23T08:15:22.946Z,8.90
2018-12-23T08:17:52.902Z,9.00
2018-12-23T08:20:23.612Z,9.00
2018-12-23T08:22:53.539Z,9.00
2018-12-23T08:25:23.356Z,9.00
2018-12-23T08:27:53.301Z,9.00
2018-12-23T08:30:23.575Z,9.00
2018-12-23T08:32:53.463Z,9.00
2018-12-23T08:35:26.335Z,9.00
2018-12-23T08:37:56.301Z,9.00
2018-12-23T08:40:26.195Z,9.00
2018-12-23T08:42:55.963Z,9.00
2018-12-23T08:45:25.869Z,9.00
2018-12-23T08:47:55.769Z,9.00
2018-12-23T08:50:25.635Z,9.00
2018-12-23T08:52:55.519Z,9.00
2018-12-23T08:55:25.393Z,9.00
2018-12-23T08:57:55.386Z,9.00
2018-12-23T09:00:25.268Z,9.00
2018-12-23T09:02:55.151Z,9.00
2018-12-23T09:05:26.135Z,9.00
2018-12-23T09:07:56.020Z,9.10
2018-12-23T09:10:25.851Z,9.10
2018-12-23T09:12:55.889Z,9.10
2018-12-23T09:15:26.191Z,9.10
2018-12-23T09:17:56.280Z,9.10
2018-12-23T09:20:28.811Z,9.20
2018-12-23T09:22:58.679Z,9.20
2018-12-23T09:25:28.678Z,9.20
2018-12-23T09:27:58.675Z,9.20
2018-12-23T09:30:28.552Z,9.20
2018-12-23T09:32:58.409Z,9.20
2018-12-23T09:35:28.735Z,9.20
2018-12-23T09:38:01.520Z,9.20
2018-12-23T09:40:30.267Z,9.10
2018-12-23T09:43:00.209Z,9.20
2018-12-23T09:45:30.325Z,9.20
2018-12-23T09:48:00.235Z,9.20
2018-12-23T09:50:30.302Z,9.20
2018-12-23T09:53:00.357Z,9.20
2018-12-23T09:55:30.357Z,9.20
2018-12-23T09:58:00.247Z,9.20
2018-12-23T10:00:30.274Z,9.20
2018-12-23T10:03:00.135Z,9.20
2018-12-23T10:05:30.082Z,9.20
2018-12-23T10:07:59.947Z,9.10
2018-12-23T10:10:29.918Z,9.10
2018-12-23T10:12:59.783Z,9.20
2018-12-23T10:15:29.654Z,9.20
2018-12-23T10:17:59.614Z,9.20
2018-12-23T10:20:30.079Z,9.20
2018-12-23T10:23:00.070Z,9.20
2018-12-23T10:25:30.213Z,9.20
2018-12-23T10:28:00.820Z,9.20
2018-12-23T10:30:30.812Z,9.20
2018-12-23T10:33:00.726Z,9.20
2018-12-23T10:35:30.599Z,9.20
2018-12-23T10:38:00.484Z,9.20
2018-12-23T10:40:30.682Z,9.30
2018-12-23T10:43:01.439Z,9.30
2018-12-23T10:45:31.365Z,9.20
2018-12-23T10:48:01.239Z,9.30
2018-12-23T10:50:31.284Z,9.30
2018-12-23T10:53:01.142Z,9.30
2018-12-23T10:55:31.254Z,9.30
2018-12-23T10:58:01.384Z,9.30
2018-12-23T11:00:31.533Z,9.30
2018-12-23T11:03:01.460Z,9.20
2018-12-23T11:05:31.800Z,9.30
2018-12-23T11:08:01.848Z,9.30
2018-12-23T11:10:31.879Z,9.30
2018-12-23T11:13:01.810Z,9.30
2018-12-23T11:15:31.950Z,9.30
2018-12-23T11:18:01.923Z,9.30
2018-12-23T11:20:33.776Z,9.30
2018-12-23T11:23:03.622Z,9.30
2018-12-23T11:25:33.589Z,9.40
2018-12-23T11:28:03.533Z,9.40
2018-12-23T11:30:33.644Z,9.40
2018-12-23T11:33:03.578Z,9.40
2018-12-23T11:35:33.786Z,9.30
2018-12-23T11:38:03.915Z,9.40
2018-12-23T11:40:33.936Z,9.40
2018-12-23T11:43:03.838Z,9.40
2018-12-23T11:45:33.654Z,9.40
2018-12-23T11:48:03.575Z,9.30
2018-12-23T11:50:33.782Z,9.40
2018-12-23T11:53:03.654Z,9.40
2018-12-23T11:55:33.837Z,9.40
2018-12-23T11:58:03.995Z,9.40
2018-12-23T12:00:34.106Z,9.30
2018-12-23T12:03:04.183Z,9.40
2018-12-23T12:05:36.424Z,9.30
2018-12-23T12:08:06.104Z,9.20
2018-12-23T12:10:36.273Z,9.30
2018-12-23T12:13:06.328Z,9.20
2018-12-23T12:15:36.437Z,9.20
2018-12-23T12:18:06.308Z,9.20
2018-12-23T12:20:36.563Z,9.20
2018-12-23T12:23:06.763Z,9.20
2018-12-23T12:25:36.624Z,9.10
2018-12-23T12:28:06.518Z,9.10
2018-12-23T12:30:36.689Z,9.00
2018-12-23T12:33:06.554Z,9.00
2018-12-23T12:35:36.395Z,9.00
2018-12-23T12:38:06.354Z,9.10
2018-12-23T12:40:36.282Z,9.10
2018-12-23T12:43:06.915Z,9.00
2018-12-23T12:45:36.991Z,9.00
2018-12-23T12:48:06.813Z,9.00
2018-12-23T12:50:37.031Z,9.00
2018-12-23T12:53:07.376Z,9.00
2018-12-23T12:55:37.328Z,9.00
2018-12-23T12:58:07.365Z,9.00
2018-12-23T13:00:37.475Z,9.00
2018-12-23T13:03:07.440Z,9.00
2018-12-23T13:05:38.319Z,8.90
2018-12-23T13:08:08.190Z,8.90
2018-12-23T13:10:38.054Z,8.90
2018-12-23T13:13:07.894Z,8.90
2018-12-23T13:15:37.949Z,8.90
2018-12-23T13:18:08.375Z,8.90
2018-12-23T13:20:38.242Z,8.90
2018-12-23T13:23:08.483Z,8.80
2018-12-23T13:25:38.510Z,8.80
2018-12-23T13:28:08.391Z,8.80
2018-12-23T13:30:38.360Z,8.80
2018-12-23T13:33:08.531Z,8.80
2018-12-23T13:35:38.807Z,8.80
2018-12-23T13:38:08.794Z,8.80
2018-12-23T13:41:18.702Z,8.80
2018-12-23T13:44:16.492Z,8.70
2018-12-23T13:47:29.573Z,8.80
2018-12-23T13:50:49.507Z,8.80
2018-12-23T13:54:18.642Z,8.80
2018-12-23T13:57:47.788Z,8.70
2018-12-23T14:01:01.016Z,8.80
2018-12-23T14:04:10.542Z,8.80
2018-12-23T14:07:33.370Z,8.80
2018-12-23T14:10:28.792Z,9.00
2018-12-23T14:13:00.421Z,9.30
2018-12-23T14:15:30.773Z,9.00
2018-12-23T14:18:00.845Z,8.80
2018-12-23T14:20:31.026Z,8.80
2018-12-23T14:23:00.999Z,9.00
2018-12-23T14:25:30.809Z,9.10
2018-12-23T14:28:00.692Z,9.00
2018-12-23T14:30:30.532Z,8.90
2018-12-23T14:33:00.416Z,8.80
2018-12-23T14:35:32.178Z,8.80
2018-12-23T14:38:02.215Z,8.70
2018-12-23T14:40:33.190Z,8.70
2018-12-23T14:43:03.186Z,8.60
2018-12-23T14:45:33.048Z,8.50
2018-12-23T14:48:02.909Z,8.50
2018-12-23T14:50:32.858Z,8.50
2018-12-23T14:53:02.891Z,8.70
2018-12-23T14:55:32.848Z,9.00
2018-12-23T14:58:02.926Z,9.00
2018-12-23T15:00:32.883Z,9.10
2018-12-23T15:03:02.938Z,9.10
2018-12-23T15:05:32.798Z,9.10
2018-12-23T15:08:02.588Z,9.10
2018-12-23T15:10:32.549Z,9.00
2018-12-23T15:13:02.579Z,8.90
2018-12-23T15:15:33.437Z,9.00
2018-12-23T15:18:03.418Z,9.00
2018-12-23T15:20:33.545Z,9.00
2018-12-23T15:23:10.725Z,9.00
2018-12-23T15:25:35.485Z,8.80
2018-12-23T15:28:05.339Z,8.60
2018-12-23T15:30:35.457Z,8.60
2018-12-23T15:33:05.487Z,8.80
2018-12-23T15:35:37.634Z,8.90
2018-12-23T15:38:07.707Z,8.90
2018-12-23T15:40:38.003Z,8.90
2018-12-23T15:43:07.845Z,8.80
2018-12-23T15:45:38.075Z,8.90
2018-12-23T15:48:08.385Z,8.90
2018-12-23T15:50:38.234Z,8.80
2018-12-23T15:53:08.299Z,8.80
2018-12-23T15:55:38.290Z,8.80
2018-12-23T15:58:09.846Z,8.80
2018-12-23T16:00:39.906Z,8.80
2018-12-23T16:03:09.929Z,8.60
2018-12-23T16:05:40.031Z,8.30
2018-12-23T16:08:10.110Z,8.40
2018-12-23T16:10:40.049Z,8.70
2018-12-23T16:13:10.200Z,8.90
2018-12-23T16:15:40.360Z,9.10
2018-12-23T16:18:10.540Z,9.10
2018-12-23T16:20:40.645Z,8.90
2018-12-23T16:23:10.572Z,8.70
2018-12-23T16:25:40.698Z,8.60
2018-12-23T16:28:10.726Z,8.60
2018-12-23T16:30:40.654Z,8.40
2018-12-23T16:33:10.425Z,8.40
2018-12-23T16:35:40.720Z,8.50
2018-12-23T16:38:10.872Z,8.60
2018-12-23T16:40:40.883Z,8.80
2018-12-23T16:43:11.005Z,8.90
2018-12-23T16:45:41.129Z,8.70
2018-12-23T16:48:11.168Z,8.50
2018-12-23T16:50:41.106Z,8.40
2018-12-23T16:53:11.421Z,8.30
2018-12-23T16:55:41.529Z,8.20
2018-12-23T16:58:11.615Z,8.20
2018-12-23T17:00:41.750Z,8.50
2018-12-23T17:03:11.764Z,8.70
2018-12-23T17:05:41.861Z,8.80
2018-12-23T17:08:11.826Z,8.80
2018-12-23T17:10:41.858Z,8.80
2018-12-23T17:13:11.771Z,8.70
2018-12-23T17:15:41.854Z,8.60
2018-12-23T17:18:11.769Z,8.70
2018-12-23T17:20:41.911Z,8.70
2018-12-23T17:23:11.863Z,8.70
2018-12-23T17:25:41.959Z,8.80
2018-12-23T17:28:12.445Z,8.80
2018-12-23T17:30:42.768Z,8.70
2018-12-23T17:33:12.659Z,8.60
2018-12-23T17:35:47.367Z,8.60
2018-12-23T17:38:17.738Z,8.60
2018-12-23T17:40:47.804Z,8.60
2018-12-23T17:43:17.881Z,8.60
2018-12-23T17:45:47.750Z,8.60
2018-12-23T17:48:17.843Z,8.60
2018-12-23T17:50:48.054Z,8.60
2018-12-23T17:53:18.105Z,8.60
2018-12-23T17:55:47.915Z,8.60
2018-12-23T17:58:17.800Z,8.60
2018-12-23T18:00:47.833Z,8.50
2018-12-23T18:03:17.793Z,8.50
2018-12-23T18:05:47.600Z,8.50
2018-12-23T18:08:17.488Z,8.50
2018-12-23T18:10:47.741Z,8.50
2018-12-23T18:13:17.846Z,8.50
2018-12-23T18:15:47.591Z,8.50
2018-12-23T18:18:18.034Z,8.50
2018-12-23T18:20:48.016Z,8.50
2018-12-23T18:23:18.123Z,8.50
2018-12-23T18:25:48.022Z,8.40
2018-12-23T18:28:18.128Z,8.40
2018-12-23T18:30:47.974Z,8.40
2018-12-23T18:33:18.148Z,8.50
2018-12-23T18:35:48.214Z,8.50
2018-12-23T18:38:18.173Z,8.50
2018-12-23T18:40:48.053Z,8.50
2018-12-23T18:43:17.924Z,8.50
2018-12-23T18:45:47.825Z,8.50
2018-12-23T18:48:17.719Z,8.50
2018-12-23T18:50:47.743Z,8.50
2018-12-23T18:53:17.611Z,8.50
2018-12-23T18:55:47.801Z,8.50
2018-12-23T18:58:17.626Z,8.50
2018-12-23T19:00:50.317Z,8.50
2018-12-23T19:03:20.338Z,8.40
2018-12-23T19:05:50.192Z,8.40
2018-12-23T19:08:25.770Z,8.30
2018-12-23T19:11:25.257Z,8.40
2018-12-23T19:14:31.760Z,8.30
2018-12-23T19:17:37.406Z,8.30
2018-12-23T19:20:43.025Z,8.20
2018-12-23T19:23:49.797Z,8.20
2018-12-23T19:26:55.373Z,8.00
2018-12-23T19:30:05.707Z,8.20
2018-12-23T19:33:07.242Z,8.30
2018-12-23T19:36:33.065Z,8.30
2018-12-23T19:39:58.781Z,8.40
2018-12-23T19:43:16.465Z,8.20
2018-12-23T19:46:42.272Z,8.00
2018-12-23T19:49:51.361Z,8.00
2018-12-23T19:53:14.516Z,8.20
2018-12-23T19:56:29.507Z,8.30
2018-12-23T19:59:42.314Z,8.30
2018-12-23T20:02:46.432Z,8.20
2018-12-23T20:05:59.056Z,8.30
2018-12-23T20:09:15.813Z,8.00
2018-12-23T20:12:28.818Z,7.90
2018-12-23T20:15:23.457Z,8.10
2018-12-23T20:18:40.307Z,8.10
2018-12-23T20:21:46.214Z,8.20
2018-12-23T20:24:57.420Z,8.30
2018-12-23T20:28:23.031Z,8.30
2018-12-23T20:31:42.891Z,8.30
2018-12-23T20:35:00.320Z,8.30
2018-12-23T20:37:59.659Z,8.30
2018-12-23T20:41:07.473Z,8.30
2018-12-23T20:44:18.764Z,8.30
2018-12-23T20:47:11.982Z,8.30
2018-12-23T20:50:00.153Z,8.30
2018-12-23T20:53:29.252Z,8.30
2018-12-23T20:56:31.384Z,8.20
2018-12-23T20:59:16.011Z,8.20
2018-12-23T21:02:38.895Z,8.20
2018-12-23T21:05:38.200Z,8.20
2018-12-23T21:08:51.886Z,8.10
2018-12-23T21:11:56.732Z,8.00
2018-12-23T21:15:05.920Z,8.10
2018-12-23T21:18:29.198Z,8.10
2018-12-23T21:21:42.940Z,8.10
2018-12-23T21:25:15.033Z,8.10
2018-12-23T21:28:27.499Z,8.00
2018-12-23T21:31:35.068Z,8.00
2018-12-23T21:35:13.116Z,7.90
2018-12-23T21:38:33.490Z,7.90
2018-12-23T21:41:52.149Z,7.80
2018-12-23T21:44:50.692Z,7.80
2018-12-23T21:47:46.099Z,7.90
2018-12-23T21:50:31.921Z,7.90
2018-12-23T21:53:39.139Z,7.80
2018-12-23T21:57:00.944Z,7.80
2018-12-23T21:59:52.795Z,7.90
2018-12-23T22:02:42.159Z,7.80
2018-12-23T22:06:17.261Z,7.80
2018-12-23T22:09:09.718Z,7.60
2018-12-23T22:12:10.791Z,7.60
2018-12-23T22:14:40.703Z,7.70
2018-12-23T22:17:10.656Z,7.70
2018-12-23T22:19:40.524Z,7.70
2018-12-23T22:22:10.603Z,7.70
2018-12-23T22:24:40.713Z,7.70
2018-12-23T22:27:10.854Z,7.70
2018-12-23T22:29:41.122Z,7.70
2018-12-23T22:32:11.199Z,7.70
2018-12-23T22:34:41.196Z,7.70
2018-12-23T22:37:11.235Z,7.60
2018-12-23T22:39:42.110Z,7.40
2018-12-23T22:42:12.188Z,7.40
2018-12-23T22:44:42.266Z,7.50
2018-12-23T22:47:12.303Z,7.60
2018-12-23T22:49:42.418Z,7.70
2018-12-23T22:52:12.270Z,7.80
2018-12-23T22:54:42.093Z,7.70
2018-12-23T22:57:11.962Z,7.70
2018-12-23T22:59:41.884Z,7.70
2018-12-23T23:02:11.700Z,7.60
2018-12-23T23:04:41.553Z,7.70
2018-12-23T23:07:11.910Z,7.70
2018-12-23T23:09:41.793Z,7.60
2018-12-23T23:12:11.733Z,7.60
2018-12-23T23:14:42.315Z,7.40
2018-12-23T23:17:12.305Z,7.50
2018-12-23T23:19:42.211Z,7.60
2018-12-23T23:22:12.027Z,7.70
2018-12-23T23:24:42.083Z,7.60
2018-12-23T23:27:11.862Z,7.40
2018-12-23T23:29:41.873Z,7.40
2018-12-23T23:32:11.698Z,7.60
2018-12-23T23:34:41.737Z,7.40
2018-12-23T23:37:11.691Z,7.50
2018-12-23T23:39:41.885Z,7.50
2018-12-23T23:42:11.949Z,7.40
2018-12-23T23:44:43.027Z,7.30
2018-12-23T23:47:12.879Z,7.40
2018-12-23T23:49:42.970Z,7.40
2018-12-23T23:52:12.801Z,7.40
2018-12-23T23:54:42.925Z,7.30
2018-12-23T23:57:12.719Z,7.30
2018-12-23T23:59:42.999Z,7.20
